createdAt,value
2022-07-25T00:00:56.881Z,0.00
2022-07-25T00:01:57.077Z,0.00
2022-07-25T00:02:56.850Z,0.00
2022-07-25T00:03:56.950Z,0.00
2022-07-25T00:04:56.871Z,0.00
2022-07-25T00:05:56.830Z,0.00
2022-07-25T00:06:56.810Z,0.00
2022-07-25T00:07:56.803Z,0.00
2022-07-25T00:08:56.814Z,0.00
2022-07-25T00:09:59.772Z,0.00
2022-07-25T00:10:56.784Z,0.00
2022-07-25T00:11:56.762Z,0.00
2022-07-25T00:12:56.748Z,0.00
2022-07-25T00:13:56.757Z,0.00
2022-07-25T00:14:56.731Z,0.00
2022-07-25T00:15:56.796Z,0.00
2022-07-25T00:16:56.713Z,0.00
2022-07-25T00:17:56.695Z,0.00
2022-07-25T00:18:56.701Z,0.00
2022-07-25T00:19:56.676Z,0.00
2022-07-25T00:20:56.678Z,0.00
2022-07-25T00:21:56.648Z,0.00
2022-07-25T00:22:56.647Z,0.00
2022-07-25T00:23:56.640Z,0.00
2022-07-25T00:24:59.618Z,0.00
2022-07-25T00:25:56.638Z,0.00
2022-07-25T00:26:56.599Z,0.00
2022-07-25T00:27:56.619Z,0.00
2022-07-25T00:28:56.578Z,0.00
2022-07-25T00:29:56.561Z,0.00
2022-07-25T00:30:56.614Z,0.00
2022-07-25T00:31:56.539Z,0.00
2022-07-25T00:32:56.532Z,0.00
2022-07-25T00:33:56.527Z,0.00
2022-07-25T00:34:56.508Z,0.00
2022-07-25T00:35:56.532Z,0.00
2022-07-25T00:36:56.511Z,0.00
2022-07-25T00:37:56.481Z,0.00
2022-07-25T00:38:56.472Z,0.00
2022-07-25T00:39:59.461Z,0.00
2022-07-25T00:40:56.506Z,0.00
2022-07-25T00:41:56.448Z,0.00
2022-07-25T00:42:56.433Z,0.00
2022-07-25T00:43:56.410Z,0.00
2022-07-25T00:44:56.433Z,0.00
2022-07-25T00:45:56.415Z,0.00
2022-07-25T00:46:56.436Z,0.00
2022-07-25T00:47:56.377Z,0.00
2022-07-25T00:48:56.438Z,0.00
2022-07-25T00:49:56.376Z,0.00
2022-07-25T00:50:56.369Z,0.00
2022-07-25T00:51:56.337Z,0.00
2022-07-25T00:52:56.318Z,0.00
2022-07-25T00:53:56.319Z,0.00
2022-07-25T00:54:59.329Z,0.00
2022-07-25T00:55:56.300Z,0.00
2022-07-25T00:56:56.278Z,0.00
2022-07-25T00:57:56.289Z,0.00
2022-07-25T00:58:56.248Z,0.00
2022-07-25T00:59:56.255Z,0.00
2022-07-25T01:00:56.238Z,0.00
2022-07-25T01:01:56.289Z,0.00
2022-07-25T01:02:56.302Z,0.00
2022-07-25T01:03:56.221Z,0.00
2022-07-25T01:04:56.213Z,0.00
2022-07-25T01:05:56.180Z,0.00
2022-07-25T01:06:56.170Z,0.00
2022-07-25T01:07:56.162Z,0.00
2022-07-25T01:08:56.160Z,0.00
2022-07-25T01:09:59.153Z,0.00
2022-07-25T01:10:56.157Z,0.00
2022-07-25T01:11:56.125Z,0.00
2022-07-25T01:12:56.153Z,0.00
2022-07-25T01:13:56.094Z,0.00
2022-07-25T01:14:56.083Z,0.00
2022-07-25T01:15:56.123Z,0.00
2022-07-25T01:16:56.064Z,0.00
2022-07-25T01:17:56.053Z,0.00
2022-07-25T01:18:56.048Z,0.00
2022-07-25T01:19:56.035Z,0.00
2022-07-25T01:20:56.034Z,0.00
2022-07-25T01:21:56.059Z,0.00
2022-07-25T01:22:56.022Z,0.00
2022-07-25T01:23:55.997Z,0.00
2022-07-25T01:24:58.988Z,0.00
2022-07-25T01:25:55.989Z,0.00
2022-07-25T01:26:56.101Z,0.00
2022-07-25T01:27:56.272Z,0.00
2022-07-25T01:28:55.949Z,0.00
2022-07-25T01:29:55.938Z,0.00
2022-07-25T01:30:55.939Z,0.00
2022-07-25T01:31:55.929Z,0.00
2022-07-25T01:32:55.890Z,0.00
2022-07-25T01:33:56.890Z,0.00
2022-07-25T01:34:55.921Z,0.00
2022-07-25T01:35:55.865Z,0.00
2022-07-25T01:36:55.852Z,0.00
2022-07-25T01:37:55.853Z,0.00
2022-07-25T01:38:55.842Z,0.00
2022-07-25T01:39:58.844Z,0.00
2022-07-25T01:40:55.834Z,0.00
2022-07-25T01:41:55.823Z,0.00
2022-07-25T01:42:55.806Z,0.00
2022-07-25T01:43:55.784Z,0.00
2022-07-25T01:44:55.766Z,0.00
2022-07-25T01:45:55.854Z,0.00
2022-07-25T01:46:55.766Z,0.00
2022-07-25T01:47:55.737Z,0.00
2022-07-25T01:48:55.813Z,0.00
2022-07-25T01:49:55.716Z,0.00
2022-07-25T01:50:55.707Z,0.00
2022-07-25T01:51:55.703Z,0.00
2022-07-25T01:52:55.686Z,0.00
2022-07-25T01:53:55.669Z,0.00
2022-07-25T01:54:58.658Z,0.00
2022-07-25T01:55:55.685Z,0.00
2022-07-25T01:56:55.677Z,0.00
2022-07-25T01:57:55.642Z,0.00
2022-07-25T01:58:55.625Z,0.00
2022-07-25T01:59:55.618Z,0.00
2022-07-25T02:00:55.608Z,0.00
2022-07-25T02:01:55.647Z,0.00
2022-07-25T02:02:55.585Z,0.00
2022-07-25T02:03:55.590Z,0.00
2022-07-25T02:04:55.615Z,0.00
2022-07-25T02:05:55.555Z,0.00
2022-07-25T02:06:55.543Z,0.00
2022-07-25T02:07:55.531Z,0.00
2022-07-25T02:08:55.542Z,0.00
2022-07-25T02:09:58.501Z,0.00
2022-07-25T02:10:55.521Z,0.00
2022-07-25T02:11:55.512Z,0.00
2022-07-25T02:12:55.483Z,0.00
2022-07-25T02:13:55.467Z,0.00
2022-07-25T02:14:55.454Z,0.00
2022-07-25T02:15:55.445Z,0.00
2022-07-25T02:16:55.524Z,0.00
2022-07-25T02:17:55.425Z,0.00
2022-07-25T02:18:55.446Z,0.00
2022-07-25T02:19:55.413Z,0.00
2022-07-25T02:20:55.397Z,0.00
2022-07-25T02:21:55.385Z,0.00
2022-07-25T02:22:55.389Z,0.00
2022-07-25T02:23:55.479Z,0.00
2022-07-25T02:24:58.348Z,0.00
2022-07-25T02:25:55.395Z,0.00
2022-07-25T02:26:55.347Z,0.00
2022-07-25T02:27:55.324Z,0.00
2022-07-25T02:28:55.312Z,0.00
2022-07-25T02:29:55.299Z,0.00
2022-07-25T02:30:55.347Z,0.00
2022-07-25T02:31:55.270Z,0.00
2022-07-25T02:32:55.282Z,0.00
2022-07-25T02:33:55.281Z,0.00
2022-07-25T02:34:55.242Z,0.00
2022-07-25T02:35:55.241Z,0.00
2022-07-25T02:36:55.232Z,0.00
2022-07-25T02:37:55.219Z,0.00
2022-07-25T02:38:55.303Z,0.00
2022-07-25T02:39:58.199Z,0.00
2022-07-25T02:40:55.196Z,0.00
2022-07-25T02:41:55.216Z,0.00
2022-07-25T02:42:55.172Z,0.00
2022-07-25T02:43:55.155Z,0.00
2022-07-25T02:44:55.143Z,0.00
2022-07-25T02:45:55.204Z,0.00
2022-07-25T02:46:55.148Z,0.00
2022-07-25T02:47:55.117Z,0.00
2022-07-25T02:48:55.186Z,0.00
2022-07-25T02:49:55.156Z,0.00
2022-07-25T02:50:55.108Z,0.00
2022-07-25T02:51:55.106Z,0.00
2022-07-25T02:52:55.106Z,0.00
2022-07-25T02:53:57.767Z,0.00
2022-07-25T02:54:58.068Z,0.00
2022-07-25T02:55:56.057Z,0.00
2022-07-25T02:56:55.018Z,0.00
2022-07-25T02:57:55.008Z,0.00
2022-07-25T02:58:55.002Z,0.00
2022-07-25T02:59:54.989Z,0.00
2022-07-25T03:00:55.016Z,0.00
2022-07-25T03:01:54.968Z,0.00
2022-07-25T03:02:54.950Z,0.00
2022-07-25T03:03:55.033Z,0.00
2022-07-25T03:04:54.933Z,0.00
2022-07-25T03:05:54.960Z,0.00
2022-07-25T03:06:54.923Z,0.00
2022-07-25T03:07:54.941Z,0.00
2022-07-25T03:08:54.898Z,0.00
2022-07-25T03:09:57.910Z,0.00
2022-07-25T03:10:54.883Z,0.00
2022-07-25T03:11:54.854Z,0.00
2022-07-25T03:12:54.844Z,0.00
2022-07-25T03:13:54.845Z,0.00
2022-07-25T03:14:54.825Z,0.00
2022-07-25T03:15:54.776Z,1.00
2022-07-25T03:16:54.846Z,1.00
2022-07-25T03:17:54.824Z,0.00
2022-07-25T03:18:54.797Z,0.00
2022-07-25T03:19:54.779Z,0.00
2022-07-25T03:20:54.767Z,0.00
2022-07-25T03:21:54.715Z,1.00
2022-07-25T03:22:54.797Z,0.00
2022-07-25T03:23:54.737Z,0.00
2022-07-25T03:24:57.678Z,7.00
2022-07-25T03:25:54.681Z,6.00
2022-07-25T03:26:54.651Z,1.00
2022-07-25T03:27:54.643Z,2.00
2022-07-25T03:28:54.631Z,3.00
2022-07-25T03:29:54.636Z,5.00
2022-07-25T03:30:54.608Z,9.00
2022-07-25T03:31:54.680Z,6.00
2022-07-25T03:32:54.588Z,6.00
2022-07-25T03:33:54.590Z,10.00
2022-07-25T03:34:54.570Z,12.00
2022-07-25T03:35:54.556Z,15.00
2022-07-25T03:36:54.542Z,18.00
2022-07-25T03:37:54.555Z,19.00
2022-07-25T03:38:54.531Z,22.00
2022-07-25T03:39:57.513Z,28.00
2022-07-25T03:40:54.523Z,30.00
2022-07-25T03:41:54.492Z,37.00
2022-07-25T03:42:54.511Z,43.00
2022-07-25T03:43:54.465Z,55.00
2022-07-25T03:44:54.494Z,59.00
2022-07-25T03:45:54.489Z,69.00
2022-07-25T03:46:54.444Z,82.00
2022-07-25T03:47:54.436Z,90.00
2022-07-25T03:48:54.464Z,106.00
2022-07-25T03:49:54.416Z,120.00
2022-07-25T03:50:54.398Z,133.00
2022-07-25T03:51:55.396Z,149.00
2022-07-25T03:52:54.380Z,165.00
2022-07-25T03:53:54.403Z,186.00
2022-07-25T03:54:57.365Z,205.00
2022-07-25T03:55:54.367Z,224.00
2022-07-25T03:56:54.350Z,244.00
2022-07-25T03:57:54.318Z,269.00
2022-07-25T03:58:54.310Z,296.00
2022-07-25T03:59:54.321Z,322.00
2022-07-25T04:00:54.366Z,346.00
2022-07-25T04:01:54.337Z,376.00
2022-07-25T04:02:54.308Z,402.00
2022-07-25T04:03:54.264Z,432.00
2022-07-25T04:04:54.327Z,461.00
2022-07-25T04:05:54.246Z,496.00
2022-07-25T04:06:54.231Z,527.00
2022-07-25T04:07:54.222Z,559.00
2022-07-25T04:08:54.216Z,595.00
2022-07-25T04:09:57.219Z,630.00
2022-07-25T04:10:54.201Z,671.00
2022-07-25T04:11:54.223Z,709.00
2022-07-25T04:12:54.173Z,741.00
2022-07-25T04:13:54.159Z,775.00
2022-07-25T04:14:54.159Z,815.00
2022-07-25T04:15:54.133Z,855.00
2022-07-25T04:16:54.183Z,895.00
2022-07-25T04:17:54.182Z,936.00
2022-07-25T04:18:54.105Z,979.00
2022-07-25T04:19:54.128Z,1027.00
2022-07-25T04:20:54.087Z,1068.00
2022-07-25T04:21:54.067Z,1112.00
2022-07-25T04:22:54.059Z,1143.00
2022-07-25T04:23:54.057Z,1185.00
2022-07-25T04:24:57.077Z,1221.00
2022-07-25T04:25:54.047Z,1253.00
2022-07-25T04:26:54.027Z,1289.00
2022-07-25T04:27:54.015Z,1322.00
2022-07-25T04:28:53.996Z,1356.00
2022-07-25T04:29:54.000Z,1390.00
2022-07-25T04:30:53.979Z,1424.00
2022-07-25T04:31:54.026Z,1458.00
2022-07-25T04:32:53.967Z,1491.00
2022-07-25T04:33:53.988Z,1523.00
2022-07-25T04:34:53.950Z,1558.00
2022-07-25T04:35:53.941Z,1596.00
2022-07-25T04:36:53.921Z,1637.00
2022-07-25T04:37:53.916Z,1673.00
2022-07-25T04:38:53.900Z,1708.00
2022-07-25T04:39:56.892Z,1740.00
2022-07-25T04:40:53.897Z,1776.00
2022-07-25T04:41:53.925Z,1805.00
2022-07-25T04:42:53.877Z,1837.00
2022-07-25T04:43:53.847Z,1871.00
2022-07-25T04:44:53.861Z,1905.00
2022-07-25T04:45:53.883Z,1943.00
2022-07-25T04:46:53.866Z,1973.00
2022-07-25T04:47:53.816Z,2007.00
2022-07-25T04:48:53.912Z,2037.00
2022-07-25T04:49:53.826Z,2067.00
2022-07-25T04:50:53.774Z,2096.00
2022-07-25T04:51:53.756Z,2124.00
2022-07-25T04:52:53.744Z,2157.00
2022-07-25T04:53:53.757Z,2190.00
2022-07-25T04:54:56.724Z,2222.00
2022-07-25T04:55:53.738Z,2256.00
2022-07-25T04:56:53.715Z,2287.00
2022-07-25T04:57:53.691Z,2322.00
2022-07-25T04:58:53.688Z,2356.00
2022-07-25T04:59:54.669Z,2392.00
2022-07-25T05:00:53.707Z,2422.00
2022-07-25T05:01:53.729Z,2454.00
2022-07-25T05:02:53.649Z,2485.00
2022-07-25T05:03:53.650Z,2514.00
2022-07-25T05:04:53.620Z,2546.00
2022-07-25T05:05:53.613Z,2575.00
2022-07-25T05:06:53.605Z,2604.00
2022-07-25T05:07:53.581Z,2632.00
2022-07-25T05:08:53.715Z,2660.00
2022-07-25T05:09:56.573Z,2684.00
2022-07-25T05:10:54.060Z,2713.00
2022-07-25T05:11:56.625Z,2744.00
2022-07-25T05:12:53.543Z,2770.00
2022-07-25T05:13:53.521Z,2796.00
2022-07-25T05:14:53.515Z,2825.00
2022-07-25T05:15:53.582Z,2858.00
2022-07-25T05:16:53.520Z,2886.00
2022-07-25T05:17:53.486Z,2919.00
2022-07-25T05:18:53.482Z,2950.00
2022-07-25T05:19:53.465Z,2972.00
2022-07-25T05:20:53.456Z,2997.00
2022-07-25T05:21:53.483Z,3016.00
2022-07-25T05:22:53.428Z,3037.00
2022-07-25T05:23:53.427Z,3045.00
2022-07-25T05:24:56.414Z,3047.00
2022-07-25T05:25:53.426Z,3054.00
2022-07-25T05:26:53.387Z,3072.00
2022-07-25T05:27:53.381Z,3091.00
2022-07-25T05:28:53.378Z,3115.00
2022-07-25T05:29:53.366Z,3143.00
2022-07-25T05:30:53.367Z,3169.00
2022-07-25T05:31:53.397Z,3198.00
2022-07-25T05:32:53.467Z,3230.00
2022-07-25T05:33:53.309Z,3259.00
2022-07-25T05:34:53.306Z,3287.00
2022-07-25T05:35:53.301Z,3311.00
2022-07-25T05:36:53.289Z,3335.00
2022-07-25T05:37:53.278Z,3357.00
2022-07-25T05:38:53.292Z,3375.00
2022-07-25T05:39:56.252Z,3393.00
2022-07-25T05:40:53.281Z,3410.00
2022-07-25T05:41:53.239Z,3429.00
2022-07-25T05:42:53.238Z,3446.00
2022-07-25T05:43:53.212Z,3466.00
2022-07-25T05:44:53.201Z,3486.00
2022-07-25T05:45:53.224Z,3510.00
2022-07-25T05:46:53.269Z,3535.00
2022-07-25T05:47:53.180Z,3563.00
2022-07-25T05:48:53.197Z,3591.00
2022-07-25T05:49:53.156Z,3610.00
2022-07-25T05:50:53.183Z,3627.00
2022-07-25T05:51:53.128Z,3643.00
2022-07-25T05:52:53.125Z,3658.00
2022-07-25T05:53:53.116Z,3680.00
2022-07-25T05:54:56.103Z,3655.00
2022-07-25T05:55:53.105Z,3612.00
2022-07-25T05:56:53.082Z,3634.00
2022-07-25T05:57:53.069Z,3661.00
2022-07-25T05:58:53.057Z,3684.00
2022-07-25T05:59:53.059Z,3700.00
2022-07-25T06:00:53.061Z,3714.00
2022-07-25T06:01:53.159Z,3720.00
2022-07-25T06:02:53.183Z,3733.00
2022-07-25T06:03:52.997Z,3740.00
2022-07-25T06:04:52.988Z,3764.00
2022-07-25T06:05:52.971Z,3783.00
2022-07-25T06:06:52.962Z,3811.00
2022-07-25T06:07:53.019Z,3833.00
2022-07-25T06:08:52.949Z,3847.00
2022-07-25T06:09:55.941Z,3865.00
2022-07-25T06:10:52.943Z,3891.00
2022-07-25T06:12:00.299Z,3914.00
2022-07-25T06:12:52.910Z,3926.00
2022-07-25T06:13:52.904Z,4004.00
2022-07-25T06:14:52.900Z,4018.00
2022-07-25T06:15:52.934Z,4033.00
2022-07-25T06:16:52.871Z,4044.00
2022-07-25T06:17:52.854Z,4053.00
2022-07-25T06:18:52.877Z,4057.00
2022-07-25T06:19:52.842Z,4056.00
2022-07-25T06:20:52.840Z,4063.00
2022-07-25T06:21:52.820Z,4074.00
2022-07-25T06:22:52.806Z,4085.00
2022-07-25T06:23:52.795Z,4098.00
2022-07-25T06:24:55.795Z,4109.00
2022-07-25T06:25:52.796Z,4127.00
2022-07-25T06:26:52.787Z,4150.00
2022-07-25T06:27:52.758Z,4169.00
2022-07-25T06:28:52.737Z,4185.00
2022-07-25T06:29:52.738Z,4199.00
2022-07-25T06:30:52.725Z,4207.00
2022-07-25T06:31:52.820Z,4217.00
2022-07-25T06:32:52.698Z,4223.00
2022-07-25T06:34:52.682Z,4247.00
2022-07-25T06:35:52.667Z,4259.00
2022-07-25T06:36:52.665Z,4273.00
2022-07-25T06:37:52.653Z,4288.00
2022-07-25T06:39:55.632Z,4343.00
2022-07-25T06:40:52.641Z,4386.00
2022-07-25T06:41:52.655Z,4479.00
2022-07-25T06:42:52.602Z,4652.00
2022-07-25T06:43:52.585Z,4806.00
2022-07-25T06:44:52.572Z,4888.00
2022-07-25T06:45:52.562Z,4941.00
2022-07-25T06:46:52.629Z,5004.00
2022-07-25T06:47:52.547Z,5088.00
2022-07-25T06:48:52.609Z,5183.00
2022-07-25T06:49:52.516Z,5316.00
2022-07-25T06:50:52.535Z,5525.00
2022-07-25T06:51:52.508Z,5884.00
2022-07-25T06:52:52.497Z,5882.00
2022-07-25T06:53:52.487Z,6327.00
2022-07-25T06:54:55.475Z,7667.00
2022-07-25T06:55:52.474Z,9167.00
2022-07-25T06:56:52.437Z,9790.00
2022-07-25T06:57:52.440Z,10311.00
2022-07-25T06:58:52.431Z,10557.00
2022-07-25T06:59:52.419Z,10671.00
2022-07-25T07:00:52.496Z,10650.00
2022-07-25T07:01:52.418Z,10592.00
2022-07-25T07:02:52.461Z,10679.00
2022-07-25T07:03:52.419Z,10660.00
2022-07-25T07:04:52.361Z,10691.00
2022-07-25T07:05:52.352Z,10853.00
2022-07-25T07:06:52.379Z,10970.00
2022-07-25T07:07:52.320Z,10979.00
2022-07-25T07:08:52.321Z,11038.00
2022-07-25T07:09:55.302Z,11990.00
2022-07-25T07:10:52.312Z,12498.00
2022-07-25T07:11:52.294Z,13439.00
2022-07-25T07:12:52.273Z,5564.00
2022-07-25T07:13:52.276Z,11280.00
2022-07-25T07:14:52.246Z,77975.00
2022-07-25T07:15:52.305Z,74658.00
2022-07-25T07:16:52.256Z,72231.00
2022-07-25T07:17:52.224Z,27698.00
2022-07-25T07:18:52.215Z,26234.00
2022-07-25T07:19:52.196Z,27637.00
2022-07-25T07:20:52.203Z,23522.00
2022-07-25T07:21:52.202Z,22142.00
2022-07-25T07:22:52.169Z,21143.00
2022-07-25T07:23:53.659Z,22858.00
2022-07-25T07:24:55.147Z,26932.00
2022-07-25T07:25:52.160Z,20430.00
2022-07-25T07:26:52.127Z,24118.00
2022-07-25T07:27:52.109Z,28589.00
2022-07-25T07:28:52.130Z,23369.00
2022-07-25T07:29:52.093Z,19028.00
2022-07-25T07:31:15.094Z,26990.00
2022-07-25T07:31:53.150Z,23366.00
2022-07-25T07:32:52.076Z,12411.00
2022-07-25T07:33:52.055Z,17604.00
2022-07-25T07:34:52.036Z,19814.00
2022-07-25T07:35:52.028Z,20036.00
2022-07-25T07:36:52.023Z,23630.00
2022-07-25T07:37:52.022Z,26197.00
2022-07-25T07:38:51.997Z,77273.00
2022-07-25T07:39:54.997Z,78189.00
2022-07-25T07:40:52.023Z,73890.00
2022-07-25T07:41:51.965Z,69385.00
2022-07-25T07:42:51.966Z,25162.00
2022-07-25T07:43:51.952Z,22258.00
2022-07-25T07:44:51.932Z,20686.00
2022-07-25T07:45:52.038Z,20857.00
2022-07-25T07:46:51.988Z,21510.00
2022-07-25T07:47:51.900Z,22769.00
2022-07-25T07:48:51.956Z,24942.00
2022-07-25T07:49:51.878Z,25710.00
2022-07-25T07:50:51.900Z,24426.00
2022-07-25T07:51:51.860Z,24011.00
2022-07-25T07:52:51.853Z,26816.00
2022-07-25T07:53:51.848Z,30133.00
2022-07-25T07:54:59.220Z,31135.00
2022-07-25T07:55:51.853Z,30944.00
2022-07-25T07:56:51.833Z,31354.00
2022-07-25T07:57:51.800Z,32208.00
2022-07-25T07:58:51.825Z,28175.00
2022-07-25T08:00:51.775Z,14581.00
2022-07-25T08:01:51.856Z,17253.00
2022-07-25T08:02:51.775Z,25606.00
2022-07-25T08:03:51.754Z,31360.00
2022-07-25T08:04:51.725Z,30748.00
2022-07-25T08:05:51.844Z,27063.00
2022-07-25T08:06:51.705Z,23505.00
2022-07-25T08:07:51.695Z,22779.00
2022-07-25T08:08:51.679Z,23904.00
2022-07-25T08:09:54.680Z,25864.00
2022-07-25T08:10:55.634Z,72439.00
2022-07-25T08:11:51.667Z,72523.00
2022-07-25T08:12:51.647Z,73087.00
2022-07-25T08:13:51.659Z,73617.00
2022-07-25T08:14:51.618Z,73772.00
2022-07-25T08:15:51.734Z,73487.00
2022-07-25T08:16:51.609Z,73580.00
2022-07-25T08:17:51.598Z,73906.00
2022-07-25T08:18:51.602Z,74131.00
2022-07-25T08:19:51.570Z,74050.00
2022-07-25T08:20:52.564Z,74277.00
2022-07-25T08:21:51.553Z,74293.00
2022-07-25T08:22:56.345Z,74002.00
2022-07-25T08:23:51.543Z,73582.00
2022-07-25T08:24:54.527Z,73370.00
2022-07-25T08:25:51.531Z,73232.00
2022-07-25T08:26:51.504Z,73651.00
2022-07-25T08:27:51.496Z,74175.00
2022-07-25T08:29:04.911Z,74156.00
2022-07-25T08:29:52.464Z,73488.00
2022-07-25T08:30:51.524Z,73005.00
2022-07-25T08:31:51.707Z,73479.00
2022-07-25T08:33:51.439Z,75556.00
2022-07-25T08:34:51.415Z,75484.00
2022-07-25T08:36:51.389Z,74250.00
2022-07-25T08:37:51.386Z,74582.00
2022-07-25T08:38:51.390Z,75023.00
2022-07-25T08:39:54.372Z,75509.00
2022-07-25T08:40:51.372Z,75160.00
2022-07-25T08:41:51.361Z,75085.00
2022-07-25T08:42:51.339Z,75583.00
2022-07-25T08:43:51.317Z,75879.00
2022-07-25T08:44:51.311Z,76332.00
2022-07-25T08:45:51.457Z,76563.00
2022-07-25T08:46:51.334Z,76471.00
2022-07-25T08:47:51.281Z,76382.00
2022-07-25T08:48:51.308Z,75974.00
2022-07-25T08:49:51.255Z,75966.00
2022-07-25T08:50:51.283Z,76364.00
2022-07-25T08:51:51.724Z,76689.00
2022-07-25T08:53:00.716Z,76607.00
2022-07-25T08:53:52.213Z,76505.00
2022-07-25T08:54:54.205Z,76797.00
2022-07-25T08:55:51.215Z,76845.00
2022-07-25T08:56:51.196Z,77216.00
2022-07-25T08:57:51.178Z,77839.00
2022-07-25T08:58:51.181Z,77821.00
2022-07-25T08:59:51.158Z,77348.00
2022-07-25T09:00:51.157Z,77333.00
2022-07-25T09:01:51.234Z,78415.00
2022-07-25T09:02:51.240Z,79465.00
2022-07-25T09:03:51.128Z,79917.00
2022-07-25T09:04:51.110Z,79771.00
2022-07-25T09:05:51.102Z,78352.00
2022-07-25T09:06:51.090Z,75762.00
2022-07-25T09:07:51.082Z,74368.00
2022-07-25T09:08:51.061Z,75229.00
2022-07-25T09:09:54.065Z,78099.00
2022-07-25T09:10:51.067Z,80429.00
2022-07-25T09:11:51.045Z,80372.00
2022-07-25T09:12:51.068Z,79313.00
2022-07-25T09:13:51.023Z,78877.00
2022-07-25T09:14:51.012Z,79234.00
2022-07-25T09:15:51.066Z,79771.00
2022-07-25T09:16:50.996Z,79698.00
2022-07-25T09:17:50.977Z,79496.00
2022-07-25T09:18:50.975Z,79009.00
2022-07-25T09:19:50.973Z,78823.00
2022-07-25T09:20:50.967Z,79023.00
2022-07-25T09:21:50.936Z,79222.00
2022-07-25T09:22:51.007Z,79863.00
2022-07-25T09:23:50.915Z,80340.00
2022-07-25T09:24:53.908Z,79969.00
2022-07-25T09:25:51.231Z,79382.00
2022-07-25T09:26:50.898Z,79193.00
2022-07-25T09:27:50.880Z,79257.00
2022-07-25T09:28:50.900Z,79431.00
2022-07-25T09:29:50.851Z,79396.00
2022-07-25T09:30:50.913Z,79201.00
2022-07-25T09:31:50.832Z,79355.00
2022-07-25T09:32:50.830Z,79939.00
2022-07-25T09:33:50.872Z,80328.00
2022-07-25T09:34:50.836Z,80323.00
2022-07-25T09:35:50.812Z,80225.00
2022-07-25T09:36:50.801Z,80276.00
2022-07-25T09:37:50.807Z,80895.00
2022-07-25T09:38:50.754Z,81574.00
2022-07-25T09:39:53.757Z,81912.00
2022-07-25T09:40:50.776Z,81799.00
2022-07-25T09:41:50.726Z,81437.00
2022-07-25T09:42:50.744Z,81312.00
2022-07-25T09:43:50.707Z,81041.00
2022-07-25T09:44:50.709Z,80587.00
2022-07-25T09:45:50.754Z,79981.00
2022-07-25T09:46:50.811Z,79263.00
2022-07-25T09:47:50.669Z,79135.00
2022-07-25T09:48:50.771Z,79629.00
2022-07-25T09:49:50.660Z,79799.00
2022-07-25T09:50:50.630Z,79443.00
2022-07-25T09:51:50.630Z,78996.00
2022-07-25T09:52:50.610Z,79179.00
2022-07-25T09:53:50.605Z,80055.00
2022-07-25T09:54:53.604Z,80965.00
2022-07-25T09:55:50.597Z,81099.00
2022-07-25T09:56:50.593Z,80664.00
2022-07-25T09:57:50.564Z,80224.00
2022-07-25T09:58:50.600Z,80800.00
2022-07-25T09:59:50.544Z,81816.00
2022-07-25T10:00:50.533Z,80087.00
2022-07-25T10:01:50.648Z,79734.00
2022-07-25T10:02:50.595Z,80494.00
2022-07-25T10:03:50.509Z,82094.00
2022-07-25T10:04:50.487Z,81696.00
2022-07-25T10:05:50.487Z,81615.00
2022-07-25T10:06:50.467Z,80880.00
2022-07-25T10:07:50.497Z,80887.00
2022-07-25T10:08:50.441Z,81188.00
2022-07-25T10:09:53.440Z,81154.00
2022-07-25T10:11:50.426Z,81572.00
2022-07-25T10:12:50.425Z,81617.00
2022-07-25T10:13:50.403Z,81226.00
2022-07-25T10:14:50.403Z,81085.00
2022-07-25T10:15:50.376Z,80124.00
2022-07-25T10:16:50.430Z,79021.00
2022-07-25T10:17:50.353Z,79035.00
2022-07-25T10:18:50.473Z,80262.00
2022-07-25T10:19:55.437Z,81276.00
2022-07-25T10:20:50.337Z,81519.00
2022-07-25T10:21:50.328Z,80243.00
2022-07-25T10:22:58.256Z,79079.00
2022-07-25T10:23:50.306Z,78717.00
2022-07-25T10:24:53.297Z,79107.00
2022-07-25T10:25:50.297Z,79648.00
2022-07-25T10:26:50.276Z,80421.00
2022-07-25T10:27:50.247Z,81412.00
2022-07-25T10:28:50.245Z,82264.00
2022-07-25T10:30:50.242Z,81294.00
2022-07-25T10:31:51.717Z,80704.00
2022-07-25T10:32:50.200Z,79993.00
2022-07-25T10:33:50.200Z,79797.00
2022-07-25T10:34:50.185Z,80011.00
2022-07-25T10:35:50.171Z,80568.00
2022-07-25T10:36:50.172Z,81590.00
2022-07-25T10:37:50.151Z,81439.00
2022-07-25T10:38:50.142Z,79523.00
2022-07-25T10:40:50.147Z,80393.00
2022-07-25T10:41:50.114Z,81832.00
2022-07-25T10:42:50.128Z,82137.00
2022-07-25T10:43:50.108Z,81823.00
2022-07-25T10:44:50.105Z,79800.00
2022-07-25T10:45:50.100Z,77733.00
2022-07-25T10:46:50.070Z,76273.00
2022-07-25T10:47:50.078Z,76291.00
2022-07-25T10:48:50.084Z,78117.00
2022-07-25T10:50:13.329Z,80168.00
2022-07-25T10:50:56.047Z,82204.00
2022-07-25T10:51:50.015Z,81625.00
2022-07-25T10:52:50.024Z,81398.00
2022-07-25T10:53:49.996Z,81626.00
2022-07-25T10:54:52.972Z,82286.00
2022-07-25T10:56:05.135Z,82042.00
2022-07-25T10:56:50.988Z,82292.00
2022-07-25T10:58:16.130Z,82009.00
2022-07-25T10:58:50.944Z,81092.00
2022-07-25T10:59:49.934Z,79475.00
2022-07-25T11:00:50.050Z,78230.00
2022-07-25T11:01:49.946Z,77960.00
2022-07-25T11:02:49.985Z,78921.00
2022-07-25T11:03:49.886Z,80176.00
2022-07-25T11:04:49.885Z,80846.00
2022-07-25T11:05:49.876Z,80913.00
2022-07-25T11:06:49.871Z,80982.00
2022-07-25T11:08:04.717Z,80970.00
2022-07-25T11:08:50.843Z,80667.00
2022-07-25T11:09:52.831Z,80315.00
2022-07-25T11:10:49.838Z,80028.00
2022-07-25T11:11:49.807Z,80329.00
2022-07-25T11:12:49.813Z,80213.00
2022-07-25T11:13:49.787Z,79781.00
2022-07-25T11:14:49.781Z,79006.00
2022-07-25T11:15:49.800Z,78239.00
2022-07-25T11:16:49.825Z,78283.00
2022-07-25T11:17:49.751Z,79116.00
2022-07-25T11:18:49.761Z,79681.00
2022-07-25T11:19:49.732Z,79392.00
2022-07-25T11:20:49.745Z,77683.00
2022-07-25T11:21:49.733Z,76269.00
2022-07-25T11:22:49.702Z,76162.00
2022-07-25T11:24:52.684Z,75928.00
2022-07-25T11:25:49.704Z,76263.00
2022-07-25T11:26:49.651Z,76461.00
2022-07-25T11:27:49.646Z,76570.00
2022-07-25T11:28:49.636Z,76846.00
2022-07-25T11:29:49.635Z,77401.00
2022-07-25T11:30:49.709Z,77588.00
2022-07-25T11:31:49.665Z,77786.00
2022-07-25T11:32:49.666Z,78179.00
2022-07-25T11:33:49.750Z,78653.00
2022-07-25T11:34:49.579Z,79283.00
2022-07-25T11:36:49.559Z,78917.00
2022-07-25T11:37:49.551Z,79075.00
2022-07-25T11:38:49.566Z,78752.00
2022-07-25T11:39:53.049Z,78871.00
2022-07-25T11:40:49.532Z,79483.00
2022-07-25T11:41:49.510Z,80630.00
2022-07-25T11:42:49.492Z,81955.00
2022-07-25T11:43:49.505Z,82312.00
2022-07-25T11:44:49.485Z,82056.00
2022-07-25T11:45:49.514Z,81111.00
2022-07-25T11:46:49.455Z,79721.00
2022-07-25T11:47:49.449Z,77867.00
2022-07-25T11:48:49.529Z,76940.00
2022-07-25T11:49:49.424Z,77229.00
2022-07-25T11:50:49.450Z,78113.00
2022-07-25T11:51:49.403Z,78647.00
2022-07-25T11:52:49.395Z,79511.00
2022-07-25T11:53:49.389Z,81752.00
2022-07-25T11:54:52.379Z,82218.00
2022-07-25T11:55:49.488Z,81521.00
2022-07-25T11:56:49.362Z,78774.00
2022-07-25T11:57:49.355Z,76471.00
2022-07-25T11:58:49.341Z,76779.00
2022-07-25T11:59:49.331Z,80514.00
2022-07-25T12:00:49.371Z,81219.00
2022-07-25T12:01:49.367Z,79408.00
2022-07-25T12:03:49.325Z,79522.00
2022-07-25T12:04:49.280Z,80672.00
2022-07-25T12:05:49.290Z,81667.00
2022-07-25T12:06:49.268Z,77341.00
2022-07-25T12:07:49.252Z,75999.00
2022-07-25T12:08:49.235Z,75906.00
2022-07-25T12:09:52.234Z,75871.00
2022-07-25T12:10:49.285Z,76022.00
2022-07-25T12:11:49.246Z,76021.00
2022-07-25T12:12:49.200Z,77305.00
2022-07-25T12:13:49.198Z,78038.00
2022-07-25T12:14:49.180Z,77514.00
2022-07-25T12:15:49.161Z,77380.00
2022-07-25T12:16:49.234Z,77343.00
2022-07-25T12:17:49.149Z,77541.00
2022-07-25T12:18:49.141Z,77692.00
2022-07-25T12:19:49.118Z,77814.00
2022-07-25T12:20:49.150Z,78114.00
2022-07-25T12:21:49.121Z,77553.00
2022-07-25T12:22:49.106Z,76422.00
2022-07-25T12:24:52.100Z,76119.00
2022-07-25T12:26:49.060Z,76037.00
2022-07-25T12:27:49.066Z,75957.00
2022-07-25T12:28:49.036Z,75966.00
2022-07-25T12:29:49.022Z,76036.00
2022-07-25T12:30:54.314Z,77102.00